Time;durP1;ratioP1;P1;durP2;ratioP2;P2;SDS_P1;SDS_P2;PMS_P1;PMS_P2;Temp;Humidity;BMP_temperature;BMP_pressure;BME280_temperature;BME280_humidity;BME280_pressure;Samples;Min_cycle;Max_cycle;Signal;HPM_P1;HPM_P2
2021/10/04 00:01:31;;;;;;;8.40;4.50;;;;;;;14.30;86.02;95445.38;5060345;28;20048;-77
2021/10/04 00:03:57;;;;;;;8.77;4.97;;;;;;;14.32;85.93;95445.06;5068264;28;20082;-76
2021/10/04 00:06:22;;;;;;;9.48;4.88;;;;;;;14.30;86.65;95455.94;5066527;28;20076;-77
2021/10/04 00:08:48;;;;;;;9.90;5.00;;;;;;;14.22;86.48;95448.69;5067286;28;20076;-76
2021/10/04 00:11:14;;;;;;;8.25;4.60;;;;;;;14.21;86.62;95449.78;5071244;28;20512;-77
2021/10/04 00:13:40;;;;;;;8.05;4.85;;;;;;;14.19;86.83;95444.78;5067149;28;20091;-77
2021/10/04 00:16:06;;;;;;;10.85;4.75;;;;;;;14.32;86.20;95445.88;5047259;28;20458;-77
2021/10/04 00:18:31;;;;;;;7.72;4.38;;;;;;;14.28;86.55;95442.25;5066344;28;20044;-76
2021/10/04 00:20:57;;;;;;;9.00;4.68;;;;;;;14.24;86.87;95441.25;5048333;28;21521;-77
2021/10/04 00:23:23;;;;;;;7.70;4.68;;;;;;;14.24;87.44;95440.44;5066956;28;20090;-76
2021/10/04 00:25:49;;;;;;;8.00;4.53;;;;;;;14.25;88.06;95432.25;5048500;28;20041;-77
2021/10/04 00:28:14;;;;;;;9.13;4.82;;;;;;;14.37;87.57;95440.47;5067634;28;20093;-77
2021/10/04 00:30:40;;;;;;;10.73;5.22;;;;;;;14.28;87.95;95436.94;5049566;28;20048;-77
2021/10/04 00:33:06;;;;;;;9.07;4.72;;;;;;;14.21;87.49;95436.56;5061401;28;20042;-77
2021/10/04 00:35:32;;;;;;;9.40;4.63;;;;;;;14.18;87.69;95437.16;5067961;28;20048;-77
2021/10/04 00:37:58;;;;;;;11.77;5.03;;;;;;;14.20;88.32;95440.28;5034617;28;20048;-77
2021/10/04 00:40:30;;;;;;;8.88;4.68;;;;;;;14.21;88.63;95437.31;5066435;28;20102;-77
2021/10/04 00:42:56;;;;;;;9.82;4.88;;;;;;;14.08;89.59;95427.53;5067797;28;20048;-77
2021/10/04 00:45:22;;;;;;;12.70;5.10;;;;;;;14.14;88.89;95426.34;5065310;28;20106;-76
2021/10/04 00:47:48;;;;;;;10.05;4.75;;;;;;;14.25;88.61;95426.94;5072398;28;20048;-77
2021/10/04 00:50:16;;;;;;;7.70;4.78;;;;;;;14.11;89.96;95431.47;5070658;28;20170;-77
2021/10/04 00:52:42;;;;;;;8.00;4.82;;;;;;;14.11;89.07;95431.47;5064157;28;20041;-77
2021/10/04 00:55:10;;;;;;;8.20;4.65;;;;;;;14.09;90.43;95433.59;5068878;28;20052;-77
2021/10/04 00:57:37;;;;;;;7.28;4.43;;;;;;;14.06;89.45;95429.66;5070872;28;20041;-77
2021/10/04 01:00:06;;;;;;;9.73;4.97;;;;;;;14.04;90.02;95427.31;5071361;28;20648;-77
2021/10/04 01:02:31;;;;;;;7.60;4.70;;;;;;;14.18;89.52;95429.22;5038404;28;20491;-77
2021/10/04 01:04:57;;;;;;;9.05;4.88;;;;;;;14.11;88.74;95426.94;5061981;28;20090;-77
2021/10/04 01:07:22;;;;;;;8.02;4.43;;;;;;;14.06;89.20;95428.91;5059140;28;20049;-77
2021/10/04 01:09:48;;;;;;;8.35;4.75;;;;;;;14.14;88.99;95430.88;5043590;28;20049;-77
2021/10/04 01:12:14;;;;;;;9.48;5.05;;;;;;;14.09;88.51;95437.00;5053390;28;20051;-77
2021/10/04 01:14:40;;;;;;;9.48;5.00;;;;;;;13.99;90.12;95435.38;5051891;28;20122;-76
2021/10/04 01:17:06;;;;;;;10.38;4.80;;;;;;;13.94;90.08;95438.09;5070931;28;20648;-77
2021/10/04 01:19:31;;;;;;;11.00;4.90;;;;;;;13.95;89.96;95434.38;5071001;28;20040;-77
2021/10/04 01:21:57;;;;;;;8.05;4.63;;;;;;;13.97;89.21;95432.22;5070275;28;20079;-77
2021/10/04 01:24:23;;;;;;;9.23;4.57;;;;;;;13.81;90.12;95430.94;5048974;28;20070;-77
2021/10/04 01:26:48;;;;;;;8.45;4.70;;;;;;;13.76;90.79;95436.28;5070425;28;20079;-76
2021/10/04 01:29:15;;;;;;;8.77;4.57;;;;;;;13.73;91.25;95426.31;5070688;28;20044;-77
2021/10/04 01:31:41;;;;;;;9.13;4.60;;;;;;;13.66;91.53;95421.38;5052711;28;20063;-77
2021/10/04 01:34:07;;;;;;;8.77;5.25;;;;;;;13.62;91.77;95417.75;5068275;28;20355;-77
2021/10/04 01:36:33;;;;;;;7.93;4.90;;;;;;;13.63;91.94;95428.06;5047793;28;20075;-77
2021/10/04 01:38:59;;;;;;;11.48;4.82;;;;;;;13.60;92.11;95425.97;5059080;28;20048;-77
2021/10/04 01:41:25;;;;;;;8.40;5.07;;;;;;;13.61;91.83;95422.25;5069546;28;20051;-77
2021/10/04 01:43:52;;;;;;;7.72;4.72;;;;;;;13.36;92.81;95422.66;5052776;28;20138;-77
2021/10/04 01:46:18;;;;;;;10.60;4.80;;;;;;;13.18;93.52;95422.38;5067816;28;20119;-76
2021/10/04 01:48:44;;;;;;;9.45;5.10;;;;;;;13.14;94.51;95430.09;5070430;28;20558;-77
2021/10/04 01:51:10;;;;;;;8.18;4.72;;;;;;;13.27;92.96;95441.00;5070196;28;20501;-77
2021/10/04 01:53:36;;;;;;;10.18;5.10;;;;;;;13.28;92.94;95438.09;5071056;28;20040;-77
2021/10/04 01:56:03;;;;;;;9.05;4.70;;;;;;;13.29;93.64;95434.38;5068692;28;20090;-77
2021/10/04 01:58:30;;;;;;;9.65;4.55;;;;;;;13.31;93.57;95432.22;5069653;28;20567;-77
2021/10/04 02:01:01;;;;;;;10.05;5.00;;;;;;;13.27;93.37;95435.72;5069377;28;20471;-77
2021/10/04 02:03:27;;;;;;;9.32;5.07;;;;;;;13.16;94.06;95430.59;5070660;28;20445;-77
2021/10/04 02:05:54;;;;;;;11.35;4.65;;;;;;;13.13;94.91;95435.66;5041782;28;20040;-77
2021/10/04 02:08:19;;;;;;;7.85;4.38;;;;;;;13.14;93.56;95447.81;5059966;28;20119;-77
2021/10/04 02:10:46;;;;;;;11.00;4.97;;;;;;;13.15;93.16;95444.09;5069202;28;20632;-76
2021/10/04 02:13:12;;;;;;;9.48;5.28;;;;;;;13.20;94.58;95441.38;5072029;28;20043;-76
2021/10/04 02:15:39;;;;;;;9.85;5.10;;;;;;;13.11;94.59;95443.09;5073174;28;20041;-77
2021/10/04 02:18:07;;;;;;;9.30;5.13;;;;;;;13.04;94.32;95437.41;5066630;28;20060;-77
2021/10/04 02:20:36;;;;;;;7.13;4.50;;;;;;;12.95;95.58;95430.09;5069154;28;20041;-77
2021/10/04 02:23:06;;;;;;;12.70;4.90;;;;;;;12.88;96.00;95429.69;5062629;28;20040;-76
2021/10/04 02:25:33;;;;;;;8.18;5.00;;;;;;;13.03;94.73;95435.81;5066557;28;20049;-77
2021/10/04 02:27:59;;;;;;;9.18;4.78;;;;;;;12.98;94.46;95429.53;5050874;28;20048;-77
2021/10/04 02:30:25;;;;;;;11.25;5.60;;;;;;;12.96;95.35;95430.91;5069493;28;20129;-77
2021/10/04 02:32:51;;;;;;;11.10;5.18;;;;;;;12.87;96.03;95422.03;5068558;28;20517;-77
2021/10/04 02:35:18;;;;;;;9.68;4.78;;;;;;;12.91;95.48;95421.19;5069776;28;20041;-77
2021/10/04 02:37:44;;;;;;;9.85;4.80;;;;;;;12.90;95.86;95427.56;5055569;28;20099;-76
2021/10/04 02:40:11;;;;;;;10.55;5.10;;;;;;;12.85;95.73;95430.25;5066542;28;20101;-76
2021/10/04 02:42:37;;;;;;;10.60;4.50;;;;;;;12.87;95.16;95422.81;5051558;28;20162;-76
2021/10/04 02:45:06;;;;;;;8.73;5.03;;;;;;;12.88;94.91;95418.34;5068832;28;20048;-77
2021/10/04 02:47:31;;;;;;;7.28;4.35;;;;;;;12.83;94.86;95427.13;5064820;28;20048;-77
2021/10/04 02:49:57;;;;;;;8.45;4.50;;;;;;;12.78;95.30;95424.53;5068833;28;20041;-77
2021/10/04 02:52:23;;;;;;;8.40;4.20;;;;;;;12.91;95.65;95429.09;5070015;28;20044;-76
2021/10/04 02:54:48;;;;;;;7.85;4.50;;;;;;;12.78;95.93;95429.81;5067728;28;20546;-77
2021/10/04 02:57:14;;;;;;;9.02;4.55;;;;;;;12.86;95.71;95437.13;5051637;28;20047;-77
2021/10/04 02:59:40;;;;;;;7.70;4.70;;;;;;;12.81;95.92;95431.88;5069146;28;20064;-77
2021/10/04 03:02:06;;;;;;;5.50;2.83;;;;;;;12.80;89.15;95427.66;5069538;28;20044;-77
2021/10/04 03:04:32;;;;;;;6.95;3.92;;;;;;;12.88;91.87;95429.69;5065138;28;20070;-77
2021/10/04 03:06:57;;;;;;;8.07;4.18;;;;;;;12.84;92.32;95423.41;5049416;28;20032;-76
2021/10/04 03:09:22;;;;;;;6.68;3.50;;;;;;;12.90;92.17;95417.00;5067301;28;20421;-76
2021/10/04 03:11:48;;;;;;;6.45;3.60;;;;;;;12.74;91.50;95419.06;5068362;28;20102;-77
2021/10/04 03:14:14;;;;;;;6.00;2.80;;;;;;;12.77;90.34;95422.97;5050791;28;20039;-77
2021/10/04 03:16:39;;;;;;;6.75;3.13;;;;;;;12.85;90.13;95411.75;5067868;28;20033;-77
2021/10/04 03:19:05;;;;;;;3.28;1.90;;;;;;;12.94;81.64;95412.72;5050662;28;20044;-77
2021/10/04 03:21:31;;;;;;;3.90;1.90;;;;;;;13.04;79.92;95410.97;5067990;28;20044;-77
2021/10/04 03:23:56;;;;;;;5.07;1.95;;;;;;;13.12;79.58;95420.91;5068998;28;20080;-77
2021/10/04 03:26:22;;;;;;;3.92;1.75;;;;;;;13.13;77.56;95425.09;5059356;28;20093;-77
2021/10/04 03:28:47;;;;;;;2.75;1.60;;;;;;;13.18;77.57;95432.97;5068038;28;20037;-77
2021/10/04 03:31:13;;;;;;;2.30;1.60;;;;;;;13.20;77.67;95430.03;5068422;28;20123;-77
2021/10/04 03:33:39;;;;;;;3.90;1.70;;;;;;;13.20;77.15;95428.16;5045315;28;20048;-77
2021/10/04 03:36:05;;;;;;;2.97;1.80;;;;;;;13.21;76.76;95427.09;5062990;28;20765;-77
2021/10/04 03:38:32;;;;;;;2.53;1.50;;;;;;;13.26;76.03;95427.03;5051577;28;20044;-76
2021/10/04 03:40:57;;;;;;;3.53;1.63;;;;;;;13.26;76.35;95429.66;5061284;28;20055;-77
2021/10/04 03:43:24;;;;;;;3.67;1.70;;;;;;;13.30;76.23;95435.16;5067818;28;20044;-77
2021/10/04 03:45:50;;;;;;;2.92;1.75;;;;;;;13.28;75.33;95432.78;5060606;28;20446;-77
2021/10/04 03:48:15;;;;;;;3.10;1.88;;;;;;;13.25;75.86;95427.31;5068361;28;20040;-77
2021/10/04 03:50:41;;;;;;;2.78;1.50;;;;;;;13.24;75.78;95431.81;5067914;28;20442;-77
2021/10/04 03:53:06;;;;;;;4.00;1.63;;;;;;;13.27;75.56;95428.56;5063752;28;20053;-77
2021/10/04 03:55:32;;;;;;;3.30;2.05;;;;;;;13.28;75.80;95430.16;5068389;28;20044;-77
2021/10/04 03:57:58;;;;;;;4.57;1.90;;;;;;;13.28;75.75;95430.16;5067896;28;20040;-77
2021/10/04 04:00:27;;;;;;;3.55;2.00;;;;;;;13.29;75.35;95429.09;5068501;28;20055;-76
2021/10/04 04:02:53;;;;;;;4.07;2.00;;;;;;;13.29;75.43;95431.72;5052612;28;20047;-77
2021/10/04 04:05:18;;;;;;;3.88;1.80;;;;;;;13.26;75.28;95429.66;5054343;28;20180;-77
2021/10/04 04:07:45;;;;;;;4.22;1.80;;;;;;;13.22;76.70;95428.66;5065785;28;20056;-77
2021/10/04 04:10:12;;;;;;;3.00;1.80;;;;;;;13.25;76.10;95433.38;5065380;28;20047;-77
2021/10/04 04:12:38;;;;;;;3.30;1.80;;;;;;;13.21;77.07;95427.09;5062852;28;20052;-77
2021/10/04 04:15:05;;;;;;;3.25;1.77;;;;;;;13.24;76.26;95437.09;5068032;28;20041;-77
2021/10/04 04:17:31;;;;;;;4.78;1.95;;;;;;;13.17;76.45;95426.09;5046500;28;20398;-76
2021/10/04 04:19:57;;;;;;;3.75;2.05;;;;;;;13.22;75.97;95431.31;5066847;28;20040;-77
2021/10/04 04:22:22;;;;;;;4.05;1.75;;;;;;;13.22;76.27;95433.97;5067664;28;20266;-77
2021/10/04 04:24:48;;;;;;;2.85;1.80;;;;;;;13.27;76.68;95444.44;5049690;28;20045;-77
2021/10/04 04:27:14;;;;;;;7.70;2.22;;;;;;;13.30;76.70;95435.94;5066248;28;20044;-77
2021/10/04 04:29:40;;;;;;;3.78;1.90;;;;;;;13.26;75.91;95436.78;5066695;28;20032;-77
2021/10/04 04:32:12;;;;;;;6.75;1.95;;;;;;;13.28;75.99;95446.00;5049617;28;20049;-77
2021/10/04 04:34:38;;;;;;;3.90;2.00;;;;;;;13.25;76.00;95443.94;5063532;28;20041;-77
2021/10/04 04:37:04;;;;;;;3.70;1.80;;;;;;;13.32;76.75;95448.88;5048513;28;20098;-77
2021/10/04 04:39:31;;;;;;;3.97;1.80;;;;;;;13.22;75.90;95439.25;5036416;28;20036;-77
2021/10/04 04:41:57;;;;;;;3.17;1.75;;;;;;;13.25;76.05;95443.94;5048882;28;20037;-76
2021/10/04 04:44:23;;;;;;;3.40;1.90;;;;;;;13.26;75.93;95445.53;5067144;28;20036;-77
2021/10/04 04:46:50;;;;;;;4.65;2.10;;;;;;;13.21;76.26;95448.22;5066082;28;20045;-77
2021/10/04 04:49:17;;;;;;;3.47;2.10;;;;;;;13.17;76.38;95441.94;5049386;28;20102;-77
2021/10/04 04:51:42;;;;;;;4.07;2.00;;;;;;;13.17;76.33;95452.50;5067516;28;20052;-77
2021/10/04 04:54:08;;;;;;;3.97;2.00;;;;;;;13.16;76.32;95458.91;5065024;28;20048;-77
2021/10/04 04:56:34;;;;;;;3.17;1.90;;;;;;;13.13;75.73;95448.88;5049167;28;20045;-76
2021/10/04 04:59:00;;;;;;;4.43;2.20;;;;;;;13.10;76.72;95452.91;5067460;28;20126;-76
2021/10/04 05:01:26;;;;;;;4.57;2.10;;;;;;;13.12;76.34;95449.97;5067715;28;20044;-77
2021/10/04 05:03:52;;;;;;;3.33;1.90;;;;;;;13.04;76.36;95442.69;5066618;28;20516;-77
2021/10/04 05:06:17;;;;;;;4.28;2.20;;;;;;;13.07;76.87;95447.38;5064859;28;20047;-76
2021/10/04 05:08:43;;;;;;;3.47;1.90;;;;;;;12.99;76.87;95452.25;5049024;28;20040;-77
2021/10/04 05:11:08;;;;;;;4.32;2.08;;;;;;;13.02;77.40;95452.75;5066878;28;20528;-76
2021/10/04 05:13:34;;;;;;;3.65;2.20;;;;;;;12.96;77.84;95450.19;5049916;28;20040;-76
2021/10/04 05:15:59;;;;;;;4.90;2.20;;;;;;;12.80;78.67;95456.72;5070374;28;20742;-76
2021/10/04 05:18:25;;;;;;;6.80;2.45;;;;;;;12.77;79.10;95452.00;5066887;28;20048;-76
2021/10/04 05:20:51;;;;;;;3.78;1.92;;;;;;;12.81;79.36;95450.38;5049016;28;20040;-76
2021/10/04 05:23:17;;;;;;;4.70;1.92;;;;;;;12.77;79.47;95454.66;5048447;28;20444;-76
2021/10/04 05:25:43;;;;;;;5.60;2.22;;;;;;;12.81;80.10;95460.94;5066144;28;20045;-75
2021/10/04 05:28:08;;;;;;;4.80;2.20;;;;;;;12.75;79.99;95462.84;5049432;28;20080;-76
2021/10/04 05:30:34;;;;;;;5.10;2.15;;;;;;;12.78;80.04;95461.50;5048791;28;20435;-76
2021/10/04 05:33:00;;;;;;;4.30;2.20;;;;;;;12.79;80.43;95463.09;5047397;28;20045;-76
2021/10/04 05:35:26;;;;;;;5.30;2.30;;;;;;;12.72;80.66;95460.00;5064049;28;20045;-75
2021/10/04 05:37:53;;;;;;;4.05;2.10;;;;;;;12.75;80.64;95470.00;5057225;28;20037;-76
2021/10/04 05:40:20;;;;;;;3.92;1.95;;;;;;;12.77;80.66;95465.22;5048216;28;20071;-76
2021/10/04 05:42:45;;;;;;;4.20;2.40;;;;;;;12.77;80.84;95470.50;5070652;28;20068;-76
2021/10/04 05:45:13;;;;;;;5.35;2.58;;;;;;;12.82;81.72;95473.09;5069277;28;20048;-76
2021/10/04 05:47:40;;;;;;;7.60;2.40;;;;;;;12.85;80.84;95488.34;5067459;28;20044;-76
2021/10/04 05:50:07;;;;;;;6.03;2.42;;;;;;;12.80;81.42;95488.41;5062618;28;20055;-76
2021/10/04 05:52:33;;;;;;;6.15;2.13;;;;;;;12.85;81.54;95493.63;5070543;28;20490;-77
2021/10/04 05:54:58;;;;;;;4.07;2.10;;;;;;;12.85;80.95;95488.34;5069606;28;20049;-77
2021/10/04 05:57:24;;;;;;;4.57;2.10;;;;;;;12.83;81.54;95485.22;5066610;28;20046;-76
2021/10/04 05:59:49;;;;;;;6.63;2.38;;;;;;;12.83;81.42;95485.22;5068798;28;20041;-77
2021/10/04 06:02:15;;;;;;;6.80;2.80;;;;;;;12.81;82.30;95477.59;5060245;28;20055;-76
2021/10/04 06:04:40;;;;;;;7.22;2.38;;;;;;;12.80;81.81;95480.47;5070634;28;20041;-76
2021/10/04 06:07:06;;;;;;;5.50;2.78;;;;;;;12.87;82.15;95485.44;5055354;28;20494;-76
2021/10/04 06:09:32;;;;;;;6.38;2.70;;;;;;;12.88;81.60;95482.50;5052565;28;20679;-76
2021/10/04 06:11:57;;;;;;;5.10;2.40;;;;;;;12.88;82.01;95482.50;5051168;28;20126;-76
2021/10/04 06:14:23;;;;;;;6.97;2.35;;;;;;;12.93;81.31;95493.00;5051624;28;20033;-76
2021/10/04 06:16:49;;;;;;;4.80;2.20;;;;;;;12.96;80.79;95481.88;5051493;28;20040;-76
2021/10/04 06:19:14;;;;;;;7.32;2.33;;;;;;;12.91;81.06;95492.50;5049410;28;20037;-76
2021/10/04 06:21:40;;;;;;;5.07;2.28;;;;;;;13.02;80.96;95497.66;5069440;28;20115;-76
2021/10/04 06:24:06;;;;;;;6.18;2.15;;;;;;;13.04;80.34;95498.16;5069691;28;20097;-77
2021/10/04 06:26:32;;;;;;;4.35;2.20;;;;;;;12.97;80.77;95496.66;5067646;28;20045;-77
2021/10/04 06:28:57;;;;;;;3.80;2.08;;;;;;;12.92;81.01;95499.34;5054942;28;20676;-76
2021/10/04 06:31:25;;;;;;;3.83;2.15;;;;;;;12.94;81.31;95507.78;5069748;28;20052;-77
2021/10/04 06:33:51;;;;;;;4.07;2.28;;;;;;;13.05;81.48;95507.66;5041058;28;20130;-76
2021/10/04 06:36:17;;;;;;;4.65;2.25;;;;;;;13.04;81.67;95511.38;5064913;28;20037;-76
2021/10/04 06:38:42;;;;;;;6.28;2.47;;;;;;;13.05;81.38;95512.94;5068287;28;20066;-77
2021/10/04 06:41:08;;;;;;;4.22;2.28;;;;;;;13.14;81.72;95521.78;5051935;28;20055;-77
2021/10/04 06:43:33;;;;;;;6.65;2.50;;;;;;;13.18;81.23;95520.16;5051617;28;20086;-77
2021/10/04 06:45:59;;;;;;;8.27;2.50;;;;;;;13.26;81.12;95524.81;5064905;28;20495;-76
2021/10/04 06:48:24;;;;;;;4.10;2.30;;;;;;;13.28;81.25;95522.66;5049619;28;20103;-76
2021/10/04 06:50:51;;;;;;;5.60;2.50;;;;;;;13.27;81.21;95530.88;5064696;28;20044;-76
2021/10/04 06:53:16;;;;;;;7.00;2.67;;;;;;;13.13;81.87;95533.41;5064043;28;20044;-76
2021/10/04 06:55:45;;;;;;;7.20;2.67;;;;;;;13.27;81.58;95536.94;5065345;28;20040;-76
2021/10/04 06:58:11;;;;;;;6.50;2.67;;;;;;;13.31;81.14;95537.94;5068747;28;20047;-76
2021/10/04 07:00:37;;;;;;;6.93;3.00;;;;;;;13.28;81.73;95533.22;5067500;28;20040;-76
2021/10/04 07:03:03;;;;;;;7.97;2.60;;;;;;;13.33;81.75;95535.81;5066679;28;20052;-77
2021/10/04 07:05:29;;;;;;;5.70;2.58;;;;;;;13.42;81.99;95537.81;5047531;28;20056;-76
2021/10/04 07:07:56;;;;;;;8.88;3.05;;;;;;;13.52;82.13;95533.19;5067231;28;20032;-76
2021/10/04 07:10:23;;;;;;;6.43;3.03;;;;;;;13.73;81.15;95540.03;5069082;28;20049;-77
2021/10/04 07:12:49;;;;;;;8.68;3.28;;;;;;;13.77;80.87;95539.16;5067797;28;20098;-77
2021/10/04 07:15:15;;;;;;;5.25;3.15;;;;;;;13.59;81.39;95547.88;5065152;28;20052;-77
2021/10/04 07:17:41;;;;;;;8.85;3.40;;;;;;;13.61;81.78;95551.81;5068139;28;20461;-77
2021/10/04 07:20:07;;;;;;;10.77;3.75;;;;;;;13.82;81.85;95556.78;5050397;28;20094;-76
2021/10/04 07:22:34;;;;;;;10.93;4.15;;;;;;;13.83;81.95;95553.09;5050561;28;20075;-76
2021/10/04 07:24:59;;;;;;;7.50;3.53;;;;;;;13.92;81.81;95556.66;5068513;28;20107;-76
2021/10/04 07:27:25;;;;;;;14.13;3.80;;;;;;;14.03;81.34;95555.38;5048760;28;20047;-76
2021/10/04 07:29:51;;;;;;;7.95;3.40;;;;;;;13.99;80.96;95551.78;5067908;28;20064;-77
2021/10/04 07:32:16;;;;;;;10.57;3.90;;;;;;;14.03;80.92;95563.31;5059952;28;20041;-78
2021/10/04 07:34:42;;;;;;;8.50;3.65;;;;;;;13.94;81.32;95559.78;5067777;28;20106;-77
2021/10/04 07:37:08;;;;;;;7.22;3.22;;;;;;;13.95;81.32;95556.06;5064463;28;20101;-77
2021/10/04 07:39:35;;;;;;;9.32;3.00;;;;;;;13.86;80.68;95563.09;5065982;28;20056;-77
2021/10/04 07:42:01;;;;;;;7.82;3.28;;;;;;;13.97;80.34;95559.19;5066637;28;20044;-76
2021/10/04 07:44:27;;;;;;;6.78;3.00;;;;;;;14.01;80.08;95568.13;5067353;28;20118;-76
2021/10/04 07:46:54;;;;;;;5.03;3.05;;;;;;;14.00;80.04;95579.78;5063867;28;20110;-76
2021/10/04 07:49:20;;;;;;;11.68;3.08;;;;;;;13.97;80.18;95580.38;5062326;28;20044;-75
2021/10/04 07:51:46;;;;;;;6.22;2.90;;;;;;;14.14;79.28;95573.78;5047834;28;20063;-76
2021/10/04 07:54:11;;;;;;;6.40;2.88;;;;;;;14.16;79.78;95577.69;5046834;28;20048;-76
2021/10/04 07:56:39;;;;;;;7.72;3.17;;;;;;;14.13;80.59;95582.78;5066312;28;20399;-75
2021/10/04 07:59:09;;;;;;;6.57;3.10;;;;;;;14.18;80.43;95585.34;5064850;28;20794;-74
2021/10/04 08:01:36;;;;;;;9.27;3.00;;;;;;;14.11;79.82;95596.28;5049335;28;20052;-74
2021/10/04 08:04:02;;;;;;;9.90;2.88;;;;;;;14.18;79.61;95601.22;5066403;28;20052;-74
2021/10/04 08:06:28;;;;;;;5.43;2.70;;;;;;;14.26;79.56;95603.19;5059970;28;20067;-76
2021/10/04 08:08:54;;;;;;;6.38;3.20;;;;;;;14.20;79.75;95599.84;5067066;28;20041;-76
2021/10/04 08:11:21;;;;;;;8.23;3.58;;;;;;;14.19;79.69;95613.38;5066771;28;20075;-76
2021/10/04 08:13:50;;;;;;;7.20;3.88;;;;;;;14.13;79.60;95609.25;5060108;28;20054;-76
2021/10/04 08:16:22;;;;;;;6.15;3.00;;;;;;;14.11;79.81;95611.41;5046230;28;20090;-76
2021/10/04 08:18:50;;;;;;;6.13;3.30;;;;;;;14.13;80.24;95609.25;5064856;28;20380;-75
2021/10/04 08:21:16;;;;;;;9.88;3.47;;;;;;;13.97;80.79;95606.81;5071853;28;20052;-75
2021/10/04 08:23:44;;;;;;;8.75;3.70;;;;;;;14.12;80.32;95605.00;5073271;28;20036;-75
2021/10/04 08:26:09;;;;;;;7.70;3.53;;;;;;;14.03;80.76;95604.88;5042824;28;20060;-75
2021/10/04 08:28:36;;;;;;;6.70;3.00;;;;;;;14.18;79.75;95617.09;5065963;28;20056;-75
2021/10/04 08:31:02;;;;;;;5.03;2.58;;;;;;;14.07;80.12;95613.81;5061466;28;20414;-75
2021/10/04 08:33:28;;;;;;;9.07;2.67;;;;;;;14.13;79.83;95609.25;5067339;28;20033;-75
2021/10/04 08:35:53;;;;;;;5.07;2.80;;;;;;;14.16;79.17;95609.44;5055906;28;20117;-75
2021/10/04 08:38:19;;;;;;;4.88;2.70;;;;;;;14.13;79.35;95615.31;5036796;28;20776;-75
2021/10/04 08:40:46;;;;;;;5.40;2.70;;;;;;;14.23;78.70;95619.66;5064749;28;20591;-75
2021/10/04 08:43:12;;;;;;;7.38;2.90;;;;;;;14.25;78.77;95619.38;5067001;28;20052;-75
2021/10/04 08:45:39;;;;;;;5.43;2.60;;;;;;;14.26;78.90;95628.88;5054713;28;20075;-76
2021/10/04 08:48:06;;;;;;;4.80;2.50;;;;;;;14.14;79.72;95632.00;5067310;28;20052;-75
2021/10/04 08:50:32;;;;;;;5.40;2.90;;;;;;;14.12;80.05;95642.06;5042490;28;20047;-75
2021/10/04 08:53:02;;;;;;;5.07;2.63;;;;;;;14.05;79.97;95639.81;5060970;28;20135;-75
2021/10/04 08:55:28;;;;;;;10.35;3.55;;;;;;;14.06;80.18;95641.34;5060855;28;20032;-75
2021/10/04 08:57:54;;;;;;;4.30;2.70;;;;;;;13.87;80.58;95633.44;5049734;28;20045;-75
2021/10/04 09:00:20;;;;;;;4.43;2.78;;;;;;;14.03;81.19;95642.72;5061765;28;20041;-75
2021/10/04 09:02:48;;;;;;;4.38;2.80;;;;;;;13.86;81.38;95637.94;5041461;28;20053;-77
2021/10/04 09:05:25;;;;;;;4.55;2.65;;;;;;;13.92;81.51;95638.66;5068177;28;20581;-76
2021/10/04 09:08:01;;;;;;;5.47;3.00;;;;;;;13.85;81.39;95640.88;5051039;28;20070;-76
2021/10/04 09:10:32;;;;;;;4.57;2.75;;;;;;;13.84;81.82;95636.66;5072496;28;20044;-76
2021/10/04 09:13:01;;;;;;;6.53;3.40;;;;;;;13.81;80.93;95650.47;5071170;28;20049;-77
2021/10/04 09:15:34;;;;;;;4.28;2.80;;;;;;;13.81;80.94;95650.47;5052614;28;20040;-75
2021/10/04 09:18:06;;;;;;;5.30;2.97;;;;;;;13.86;81.51;95653.03;5070759;28;20514;-77
2021/10/04 09:20:58;;;;;;;5.72;2.97;;;;;;;13.81;81.59;95661.81;5070391;28;20319;-76
2021/10/04 09:23:44;;;;;;;4.88;2.70;;;;;;;13.66;82.29;95668.13;5069893;28;20040;-76
2021/10/04 09:26:30;;;;;;;5.70;2.80;;;;;;;13.67;81.86;95672.31;5070303;28;20076;-77
2021/10/04 09:29:06;;;;;;;4.68;2.67;;;;;;;13.55;81.70;95669.31;5070833;28;20041;-77
2021/10/04 09:31:36;;;;;;;5.78;2.92;;;;;;;13.57;82.04;95672.44;5070322;28;20048;-77
2021/10/04 09:34:12;;;;;;;4.55;2.70;;;;;;;13.46;82.01;95671.00;5061267;28;20055;-78
2021/10/04 09:36:59;;;;;;;4.45;2.60;;;;;;;13.44;82.16;95683.72;5067575;28;20044;-77
2021/10/04 09:39:41;;;;;;;4.55;2.78;;;;;;;13.41;82.01;95693.00;5050561;28;20098;-76
2021/10/04 09:42:17;;;;;;;4.50;2.70;;;;;;;13.33;82.02;95694.38;5052832;28;20056;-77
2021/10/04 09:44:51;;;;;;;6.55;2.70;;;;;;;13.32;81.54;95692.81;5070919;28;20637;-77
2021/10/04 09:47:33;;;;;;;4.97;2.80;;;;;;;13.31;81.62;95699.16;5061739;28;20045;-76
2021/10/04 09:50:06;;;;;;;8.85;3.22;;;;;;;13.26;82.43;95698.41;5063988;28;20835;-76
2021/10/04 09:52:51;;;;;;;7.47;2.80;;;;;;;13.41;82.04;95702.78;5070569;28;20040;-76
2021/10/04 09:55:25;;;;;;;6.10;2.83;;;;;;;13.40;82.34;95698.56;5069459;28;20517;-76
2021/10/04 09:58:06;;;;;;;7.10;2.92;;;;;;;13.51;81.67;95689.44;5053268;28;20127;-76
2021/10/04 10:00:42;;;;;;;6.47;2.70;;;;;;;13.45;82.23;95690.59;5068717;28;20435;-77
2021/10/04 10:03:09;;;;;;;5.70;3.20;;;;;;;13.38;81.69;95703.38;5068303;28;20045;-76
2021/10/04 10:05:38;;;;;;;6.15;3.17;;;;;;;13.30;82.45;95705.53;5072025;28;20054;-77
2021/10/04 10:08:06;;;;;;;6.78;3.20;;;;;;;13.38;82.36;95711.28;5040584;28;20048;-76
2021/10/04 10:10:31;;;;;;;7.00;2.92;;;;;;;13.40;82.70;95703.84;5053627;28;20060;-75
2021/10/04 10:12:58;;;;;;;5.10;2.95;;;;;;;13.43;82.07;95708.56;5060733;28;20066;-76
2021/10/04 10:15:26;;;;;;;4.63;2.80;;;;;;;13.45;81.24;95709.09;5073471;28;20525;-76
2021/10/04 10:17:59;;;;;;;5.00;2.70;;;;;;;13.43;81.10;95705.94;5070105;28;20729;-76
2021/10/04 10:20:25;;;;;;;5.82;3.08;;;;;;;13.40;81.36;95698.56;5069516;28;20044;-76
2021/10/04 10:22:53;;;;;;;5.38;2.95;;;;;;;13.36;81.44;95700.19;5068833;28;20090;-76
2021/10/04 10:25:35;;;;;;;5.22;3.40;;;;;;;13.25;81.35;95702.94;5070025;28;20049;-77
2021/10/04 10:28:05;;;;;;;5.95;2.70;;;;;;;13.29;81.16;95698.66;5064224;28;20521;-76
2021/10/04 10:30:30;;;;;;;6.68;2.70;;;;;;;13.45;81.65;95706.44;5069318;28;20044;-76
2021/10/04 10:32:58;;;;;;;5.72;2.60;;;;;;;13.40;81.88;95714.44;5048196;28;20091;-76
2021/10/04 10:35:47;;;;;;;5.70;2.50;;;;;;;13.45;81.74;95715.16;5061884;28;20045;-76
2021/10/04 10:38:14;;;;;;;4.88;2.50;;;;;;;13.47;82.08;95707.72;5066458;28;20037;-76
2021/10/04 10:40:40;;;;;;;7.55;2.80;;;;;;;13.39;80.55;95707.56;5069871;28;20044;-76
2021/10/04 10:43:09;;;;;;;4.75;2.97;;;;;;;13.36;81.00;95718.69;5069111;28;20051;-76
2021/10/04 10:45:45;;;;;;;5.18;2.75;;;;;;;13.26;81.24;95706.34;5066989;28;20040;-76
2021/10/04 10:48:11;;;;;;;4.57;2.90;;;;;;;13.30;81.07;95707.38;5051912;28;20052;-76
2021/10/04 10:50:42;;;;;;;4.90;3.03;;;;;;;13.25;81.27;95724.06;5069529;28;20106;-75
2021/10/04 10:53:25;;;;;;;5.53;3.10;;;;;;;13.21;81.63;95720.41;5050603;28;20048;-75
2021/10/04 10:56:05;;;;;;;5.95;2.70;;;;;;;13.43;81.36;95725.25;5064080;28;20051;-75
2021/10/04 10:58:34;;;;;;;4.68;2.88;;;;;;;13.36;80.90;95729.28;5068613;28;20041;-74
2021/10/04 11:01:04;;;;;;;5.13;2.60;;;;;;;13.43;81.29;95727.06;5047920;28;20456;-73
2021/10/04 11:03:31;;;;;;;6.82;2.60;;;;;;;13.36;81.52;95735.38;5068641;28;20123;-73
2021/10/04 11:06:05;;;;;;;5.03;2.40;;;;;;;13.45;81.38;95738.19;5067545;28;20044;-73
2021/10/04 11:08:43;;;;;;;5.28;2.70;;;;;;;13.36;81.54;95739.84;5068436;28;20047;-75
2021/10/04 11:11:18;;;;;;;7.75;2.80;;;;;;;13.36;81.94;95734.56;5066955;28;20448;-72
2021/10/04 11:14:19;;;;;;;5.60;2.78;;;;;;;13.42;81.43;95736.06;5063378;28;20036;-72
2021/10/04 11:16:57;;;;;;;7.05;2.50;;;;;;;13.42;81.43;95738.72;5030253;28;20051;-73
2021/10/04 11:19:28;;;;;;;4.55;2.67;;;;;;;13.27;81.66;95743.06;5071269;28;20044;-73
2021/10/04 11:21:54;;;;;;;5.57;2.50;;;;;;;13.30;82.24;95737.25;5068535;28;20076;-73
2021/10/04 11:24:21;;;;;;;4.57;2.83;;;;;;;13.40;81.51;95730.28;5068229;28;20193;-73
2021/10/04 11:26:47;;;;;;;3.90;2.42;;;;;;;13.47;81.76;95726.22;5051007;28;20517;-73
2021/10/04 11:29:17;;;;;;;4.82;2.70;;;;;;;13.54;81.66;95736.47;5051046;28;20051;-73
2021/10/04 11:31:45;;;;;;;4.20;2.45;;;;;;;13.46;81.86;95739.72;5067648;28;20062;-73
2021/10/04 11:34:14;;;;;;;12.88;2.78;;;;;;;13.45;81.38;95732.88;5066997;28;20048;-73